Time;durP1;ratioP1;P1;durP2;ratioP2;P2;SDS_P1;SDS_P2;PMS_P1;PMS_P2;Temp;Humidity;BMP_temperature;BMP_pressure;BME280_temperature;BME280_humidity;BME280_pressure;Samples;Min_cycle;Max_cycle;Signal;HPM_P1;HPM_P2
2022/06/05 00:00:16;;;;;;;2.57;2.37;;;23.30;55.80;;;;;;5051562;28;20180;-94
2022/06/05 00:03:21;;;;;;;2.67;2.47;;;23.30;55.80;;;;;;5053811;28;20180;-94
2022/06/05 00:06:40;;;;;;;2.57;2.37;;;23.30;55.80;;;;;;5019637;28;20184;-95
2022/06/05 00:09:52;;;;;;;2.50;2.30;;;23.20;55.80;;;;;;5044440;28;20591;-94
2022/06/05 00:12:57;;;;;;;2.43;2.23;;;23.20;55.80;;;;;;5039261;28;20204;-94
2022/06/05 00:15:25;;;;;;;2.63;2.43;;;23.20;55.80;;;;;;5044931;28;20179;-94
2022/06/05 00:17:51;;;;;;;2.77;2.57;;;23.20;55.80;;;;;;5046283;28;20364;-94
2022/06/05 00:20:23;;;;;;;2.70;2.50;;;23.20;55.80;;;;;;5048767;28;20199;-94
2022/06/05 00:22:48;;;;;;;2.53;2.33;;;23.20;55.90;;;;;;5049322;28;20183;-94
2022/06/05 00:25:15;;;;;;;2.47;2.27;;;23.20;55.90;;;;;;5048141;28;20250;-94
2022/06/05 00:27:46;;;;;;;3.00;2.70;;;23.10;55.80;;;;;;5051894;28;20172;-94
2022/06/05 00:30:44;;;;;;;2.73;2.53;;;23.10;55.80;;;;;;5054680;28;20168;-94
2022/06/05 00:33:31;;;;;;;2.50;2.30;;;23.10;55.80;;;;;;5019719;28;20188;-94
2022/06/05 00:36:05;;;;;;;2.33;2.13;;;23.10;55.80;;;;;;5050077;28;20239;-94
2022/06/05 00:38:55;;;;;;;2.50;2.30;;;23.10;55.90;;;;;;5047736;28;20252;-94
2022/06/05 00:42:01;;;;;;;2.37;2.17;;;23.10;55.90;;;;;;5049154;28;20176;-94
2022/06/05 00:44:42;;;;;;;2.53;2.30;;;23.10;55.90;;;;;;5032804;28;20210;-94
2022/06/05 00:47:11;;;;;;;2.27;2.17;;;23.10;55.90;;;;;;5050741;28;20183;-94
2022/06/05 00:50:07;;;;;;;2.60;2.40;;;23.10;55.90;;;;;;5057274;28;20203;-94
2022/06/05 00:52:37;;;;;;;2.00;1.90;;;23.00;55.90;;;;;;5053036;28;20252;-95
2022/06/05 00:55:09;;;;;;;2.50;2.30;;;23.00;55.90;;;;;;5069153;28;20172;-94
2022/06/05 00:57:36;;;;;;;2.50;2.30;;;23.00;55.90;;;;;;5052152;28;20176;-94
2022/06/05 01:00:19;;;;;;;2.33;2.13;;;23.00;55.90;;;;;;5058129;28;20172;-94
2022/06/05 01:02:48;;;;;;;2.43;2.23;;;23.00;55.90;;;;;;5050418;28;20172;-94
2022/06/05 01:05:16;;;;;;;2.30;2.10;;;23.00;55.90;;;;;;5055499;28;20181;-94
2022/06/05 01:08:14;;;;;;;2.40;2.20;;;23.00;55.90;;;;;;5059245;28;20206;-94
2022/06/05 01:10:49;;;;;;;2.50;2.30;;;22.90;55.90;;;;;;5060253;28;20183;-95
2022/06/05 01:17:01;;;;;;;2.60;2.40;;;22.90;56.00;;;;;;5037362;28;20579;-93
2022/06/05 01:19:40;;;;;;;2.27;2.07;;;22.90;56.00;;;;;;5056965;28;20552;-93
2022/06/05 01:22:27;;;;;;;2.40;2.20;;;22.90;56.00;;;;;;5038636;28;20207;-92
2022/06/05 01:25:36;;;;;;;2.20;2.10;;;22.90;56.00;;;;;;5031714;28;20693;-93
2022/06/05 01:28:11;;;;;;;2.47;2.27;;;22.90;56.00;;;;;;4976528;28;20227;-93
2022/06/05 01:34:04;;;;;;;2.30;2.10;;;22.90;56.00;;;;;;5047214;28;20171;-93
2022/06/05 01:36:42;;;;;;;2.40;2.20;;;22.80;56.00;;;;;;5041663;28;20237;-93
2022/06/05 01:39:21;;;;;;;2.33;2.13;;;22.80;56.10;;;;;;5023603;28;20176;-93
2022/06/05 01:41:50;;;;;;;2.27;2.07;;;22.80;56.10;;;;;;5034428;28;20221;-93
2022/06/05 01:44:23;;;;;;;2.27;2.07;;;22.80;56.00;;;;;;5027524;28;20226;-93
2022/06/05 01:46:50;;;;;;;2.10;2.00;;;22.80;56.00;;;;;;5030465;28;20539;-92
2022/06/05 01:49:47;;;;;;;2.47;2.27;;;22.80;56.10;;;;;;5035697;28;20219;-93
2022/06/05 01:52:21;;;;;;;2.47;2.27;;;22.80;56.10;;;;;;5037993;28;20267;-93
2022/06/05 01:55:01;;;;;;;2.50;2.10;;;22.70;56.00;;;;;;5028723;28;20175;-93
2022/06/05 01:57:30;;;;;;;2.27;2.07;;;22.70;56.10;;;;;;5033223;28;20190;-93
2022/06/05 02:00:20;;;;;;;2.30;2.10;;;22.70;56.10;;;;;;5032330;28;20482;-93
2022/06/05 02:03:06;;;;;;;2.07;1.97;;;22.70;56.10;;;;;;5039390;28;20180;-93
2022/06/05 02:05:57;;;;;;;1.90;1.80;;;22.70;56.10;;;;;;5044095;28;20203;-93
2022/06/05 02:08:42;;;;;;;2.17;1.97;;;22.70;56.10;;;;;;5034853;28;20212;-93
2022/06/05 02:11:17;;;;;;;2.27;2.07;;;22.70;56.10;;;;;;5022844;28;20212;-93
2022/06/05 02:13:44;;;;;;;2.20;2.00;;;22.70;56.10;;;;;;5033350;28;20172;-93
2022/06/05 02:16:10;;;;;;;1.90;1.80;;;22.70;56.10;;;;;;5039462;28;20210;-93
2022/06/05 02:18:37;;;;;;;2.10;2.00;;;22.60;56.10;;;;;;5039637;28;20190;-93
2022/06/05 02:21:03;;;;;;;2.03;1.83;;;22.60;56.10;;;;;;5040024;28;20186;-92
2022/06/05 02:23:33;;;;;;;2.20;2.00;;;22.60;56.50;;;;;;5031049;28;20180;-93
2022/06/05 02:26:01;;;;;;;2.10;2.00;;;22.60;56.20;;;;;;5031033;28;20187;-93
2022/06/05 02:28:27;;;;;;;1.80;1.70;;;22.60;56.20;;;;;;5030378;28;20298;-93
2022/06/05 02:31:24;;;;;;;2.07;1.97;;;22.60;56.20;;;;;;5006390;28;20584;-93
2022/06/05 02:34:06;;;;;;;2.00;1.80;;;22.60;56.10;;;;;;5030151;28;20175;-93
2022/06/05 02:36:57;;;;;;;1.90;1.80;;;22.50;56.10;;;;;;5033552;28;20234;-93
2022/06/05 02:40:00;;;;;;;2.00;1.90;;;22.50;56.20;;;;;;5052655;28;20191;-93
2022/06/05 02:42:44;;;;;;;1.90;1.80;;;22.50;56.20;;;;;;5016959;28;20176;-93
2022/06/05 02:45:24;;;;;;;1.83;1.73;;;22.50;56.20;;;;;;5036635;28;20550;-93
2022/06/05 02:48:25;;;;;;;1.83;1.73;;;22.50;56.20;;;;;;5006233;28;20317;-93
2022/06/05 02:51:07;;;;;;;2.17;1.97;;;22.50;56.20;;;;;;5021631;28;20174;-93
2022/06/05 02:53:49;;;;;;;1.87;1.77;;;22.50;56.20;;;;;;5026371;28;20174;-93
2022/06/05 02:56:18;;;;;;;2.00;1.90;;;22.40;56.20;;;;;;5025549;28;20172;-93
2022/06/05 02:58:45;;;;;;;1.70;1.60;;;22.40;56.20;;;;;;5019511;28;20176;-94
2022/06/05 03:04:47;;;;;;;2.10;1.90;;;22.40;56.20;;;;;;5047889;28;20210;-94
2022/06/05 03:07:34;;;;;;;1.90;1.80;;;22.40;56.20;;;;;;4924381;29;20192;-94
2022/06/05 03:10:00;;;;;;;2.03;1.90;;;22.40;56.20;;;;;;5043297;28;20186;-94
2022/06/05 03:12:33;;;;;;;2.00;1.80;;;22.40;56.30;;;;;;4999530;28;20641;-94
2022/06/05 03:15:01;;;;;;;1.63;1.53;;;22.40;56.30;;;;;;5030280;28;20185;-94
2022/06/05 03:17:36;;;;;;;2.00;1.90;;;22.40;56.30;;;;;;5024039;28;20175;-93
2022/06/05 03:20:57;;;;;;;1.90;1.80;;;22.40;56.30;;;;;;5030662;28;20403;-93
2022/06/05 03:23:21;;;;;;;2.00;1.90;;;22.30;56.30;;;;;;5035793;28;20321;-94
2022/06/05 03:26:01;;;;;;;2.20;2.00;;;22.30;56.30;;;;;;5016199;28;20393;-94
2022/06/05 03:28:27;;;;;;;2.17;1.97;;;22.30;56.30;;;;;;5052778;28;20215;-93
2022/06/05 03:30:55;;;;;;;1.90;1.80;;;22.30;56.30;;;;;;5036819;28;20264;-94
2022/06/05 03:36:46;;;;;;;2.00;1.90;;;22.30;56.20;;;;;;5044361;28;20195;-93
2022/06/05 03:39:12;;;;;;;1.87;1.77;;;22.30;56.30;;;;;;5039724;28;20210;-93
2022/06/05 03:41:40;;;;;;;2.20;2.03;;;22.30;56.30;;;;;;5023067;28;20230;-94
2022/06/05 03:44:07;;;;;;;2.10;1.93;;;22.30;56.30;;;;;;5040011;28;20498;-94
2022/06/05 03:46:35;;;;;;;2.07;1.87;;;22.30;56.20;;;;;;5054010;28;20180;-94
2022/06/05 03:49:02;;;;;;;1.87;1.77;;;22.30;56.20;;;;;;5041214;28;20407;-94
2022/06/05 03:51:27;;;;;;;1.80;1.70;;;22.30;56.20;;;;;;5052186;28;20176;-94
2022/06/05 03:53:53;;;;;;;2.67;1.87;;;22.30;56.20;;;;;;5041455;28;20175;-94
2022/06/05 03:56:29;;;;;;;1.90;1.80;;;22.30;56.20;;;;;;5043581;28;20195;-94
2022/06/05 03:58:56;;;;;;;1.90;1.80;;;22.30;56.20;;;;;;5047844;28;20474;-93
2022/06/05 04:01:23;;;;;;;1.87;1.77;;;22.30;56.20;;;;;;5026869;28;20586;-93
2022/06/05 04:03:50;;;;;;;1.90;1.77;;;22.30;56.20;;;;;;5036763;28;20176;-93
2022/06/05 04:06:19;;;;;;;2.37;2.17;;;22.30;56.20;;;;;;5017013;28;20425;-93
2022/06/05 04:09:25;;;;;;;2.00;1.90;;;22.30;56.20;;;;;;5022215;28;20408;-92
2022/06/05 04:12:00;;;;;;;1.90;1.80;;;22.30;56.20;;;;;;5023893;28;20180;-93
2022/06/05 04:14:26;;;;;;;1.90;1.80;;;22.30;56.20;;;;;;5030570;28;20233;-93
2022/06/05 04:16:51;;;;;;;2.00;1.80;;;22.20;56.20;;;;;;5025169;28;20452;-92
2022/06/05 04:19:17;;;;;;;1.90;1.80;;;22.20;56.20;;;;;;5021268;28;20176;-93
2022/06/05 04:21:46;;;;;;;2.17;1.97;;;22.30;56.20;;;;;;4997236;28;20253;-93
2022/06/05 04:24:13;;;;;;;2.20;2.03;;;22.30;56.20;;;;;;5011188;28;20190;-93
2022/06/05 04:26:41;;;;;;;1.90;1.80;;;22.20;56.20;;;;;;5037393;28;20180;-93
2022/06/05 04:29:07;;;;;;;2.20;2.00;;;22.20;56.10;;;;;;5028549;28;20244;-93
2022/06/05 04:31:36;;;;;;;1.87;1.77;;;22.20;56.10;;;;;;5038039;28;20180;-93
2022/06/05 04:34:04;;;;;;;1.83;1.73;;;22.20;56.10;;;;;;5029082;28;20176;-94
2022/06/05 04:36:31;;;;;;;1.73;1.63;;;22.20;56.10;;;;;;5017982;28;20180;-94
2022/06/05 04:38:56;;;;;;;2.10;2.00;;;22.20;56.00;;;;;;5037069;28;20176;-93
2022/06/05 04:41:24;;;;;;;2.20;2.00;;;22.20;56.00;;;;;;5026800;28;20224;-93
2022/06/05 04:43:51;;;;;;;2.27;2.10;;;22.20;56.00;;;;;;5020944;28;20241;-93
2022/06/05 04:46:22;;;;;;;2.07;1.97;;;22.20;56.00;;;;;;5031794;28;20192;-93
2022/06/05 04:48:48;;;;;;;2.10;1.90;;;22.20;56.00;;;;;;5019077;28;20468;-93
2022/06/05 05:04:47;;;;;;;2.10;2.00;;;22.20;56.00;;;;;;5029965;28;20266;-93
2022/06/05 05:07:14;;;;;;;2.10;1.90;;;22.20;56.00;;;;;;5036976;28;20172;-93
2022/06/05 05:09:40;;;;;;;1.97;1.83;;;22.20;56.00;;;;;;5040339;28;20206;-93
2022/06/05 05:12:06;;;;;;;2.00;1.90;;;22.20;56.00;;;;;;4988998;28;20176;-93
2022/06/05 05:14:37;;;;;;;2.00;1.90;;;22.20;56.00;;;;;;5017475;28;20248;-93
2022/06/05 05:17:03;;;;;;;1.90;1.80;;;22.20;56.00;;;;;;5014497;28;20248;-93
2022/06/05 05:19:44;;;;;;;2.30;2.10;;;22.20;55.90;;;;;;5012962;28;20179;-94
2022/06/05 05:22:16;;;;;;;1.90;1.80;;;22.20;55.90;;;;;;5021115;28;20466;-94
2022/06/05 05:24:43;;;;;;;1.90;1.80;;;22.20;55.90;;;;;;5014808;28;20188;-93
2022/06/05 05:27:09;;;;;;;1.97;1.83;;;22.20;55.90;;;;;;5031666;28;20456;-93
2022/06/05 05:29:39;;;;;;;1.90;1.80;;;22.20;55.80;;;;;;5009960;28;20216;-93
2022/06/05 05:32:05;;;;;;;1.80;1.70;;;22.20;55.80;;;;;;5028249;28;20172;-93
2022/06/05 05:34:31;;;;;;;1.80;1.70;;;22.20;55.80;;;;;;5032351;28;20173;-93
2022/06/05 05:37:00;;;;;;;2.40;1.97;;;22.20;55.80;;;;;;5001359;28;20168;-93
2022/06/05 05:42:25;;;;;;;2.00;1.90;;;22.20;56.10;;;;;;5023851;28;20176;-94
2022/06/05 05:55:49;;;;;;;1.93;1.83;;;22.30;55.60;;;;;;5056905;28;20199;-94
2022/06/05 05:58:18;;;;;;;2.33;1.80;;;22.30;55.50;;;;;;5023053;28;20277;-93
2022/06/05 06:00:45;;;;;;;1.90;1.80;;;22.20;55.50;;;;;;5026222;28;20199;-93
2022/06/05 06:03:11;;;;;;;1.73;1.63;;;22.30;55.50;;;;;;5005373;28;20196;-93
2022/06/05 06:05:40;;;;;;;1.87;1.77;;;22.30;55.50;;;;;;5027291;28;20172;-93
2022/06/05 06:08:06;;;;;;;2.00;1.90;;;22.30;55.50;;;;;;5034935;28;20593;-93
2022/06/05 06:10:31;;;;;;;1.90;1.80;;;22.30;55.40;;;;;;5030970;28;20176;-92
2022/06/05 06:12:57;;;;;;;1.70;1.60;;;22.30;55.40;;;;;;5034817;28;20206;-93
2022/06/05 06:15:23;;;;;;;2.00;1.90;;;22.30;55.40;;;;;;5020506;28;20186;-92
2022/06/05 06:17:49;;;;;;;2.20;1.60;;;22.30;55.30;;;;;;5014829;28;20336;-93
2022/06/05 06:20:14;;;;;;;1.80;1.70;;;22.30;55.30;;;;;;5025064;28;20211;-93
2022/06/05 06:22:41;;;;;;;2.13;1.80;;;22.30;55.30;;;;;;5009500;28;20223;-93
2022/06/05 06:25:08;;;;;;;1.97;1.80;;;22.30;55.30;;;;;;5032770;28;20175;-93
2022/06/05 06:27:52;;;;;;;1.90;1.80;;;22.30;55.30;;;;;;5002692;28;20192;-93
2022/06/05 06:30:18;;;;;;;1.97;1.87;;;22.30;55.40;;;;;;5007163;28;20399;-92
2022/06/05 06:32:44;;;;;;;1.83;1.73;;;22.30;55.40;;;;;;5022938;28;20186;-93
2022/06/05 06:35:50;;;;;;;2.00;1.80;;;22.40;55.40;;;;;;5017500;28;20484;-94
2022/06/05 06:38:17;;;;;;;2.00;1.90;;;22.30;55.30;;;;;;5027005;28;20267;-93
2022/06/05 06:40:43;;;;;;;2.10;1.90;;;22.30;55.30;;;;;;5015423;28;20164;-93
2022/06/05 06:43:09;;;;;;;2.00;1.90;;;22.30;55.20;;;;;;5025712;28;20172;-93
2022/06/05 06:45:37;;;;;;;2.20;2.10;;;22.40;55.20;;;;;;5038886;28;20168;-93
2022/06/05 06:48:03;;;;;;;1.97;1.87;;;22.40;55.20;;;;;;5039169;28;20183;-93
2022/06/05 06:50:29;;;;;;;1.80;1.70;;;22.40;55.20;;;;;;5038271;28;20172;-93
2022/06/05 06:52:55;;;;;;;2.13;2.03;;;22.40;55.20;;;;;;5034438;28;20270;-93
2022/06/05 06:55:20;;;;;;;2.20;2.00;;;22.40;55.20;;;;;;5030881;28;20420;-93
2022/06/05 06:57:47;;;;;;;2.10;1.93;;;22.40;55.20;;;;;;5037972;28;20246;-93
2022/06/05 07:00:15;;;;;;;1.90;1.80;;;22.50;55.30;;;;;;5017997;28;20468;-93
2022/06/05 07:02:41;;;;;;;2.07;1.97;;;22.40;55.20;;;;;;5038875;28;20165;-93
2022/06/05 07:05:08;;;;;;;2.10;2.00;;;22.50;55.30;;;;;;5039352;28;20198;-93
2022/06/05 07:07:34;;;;;;;2.10;2.00;;;22.40;55.30;;;;;;5038041;28;20542;-93
2022/06/05 07:09:59;;;;;;;2.47;2.27;;;22.40;55.30;;;;;;5034580;28;20222;-93
2022/06/05 07:12:25;;;;;;;2.30;2.10;;;22.50;55.40;;;;;;5028553;28;20179;-93
2022/06/05 07:14:51;;;;;;;2.10;2.00;;;22.50;55.40;;;;;;5030052;28;20183;-94
2022/06/05 07:17:20;;;;;;;2.60;2.40;;;22.50;55.30;;;;;;5052971;28;20179;-94
2022/06/05 07:19:46;;;;;;;2.13;2.00;;;22.50;55.30;;;;;;5052730;28;20194;-94
2022/06/05 07:22:11;;;;;;;2.40;2.20;;;22.60;55.40;;;;;;5053815;28;20208;-94
2022/06/05 07:24:37;;;;;;;2.50;2.30;;;22.50;55.30;;;;;;5050615;28;20180;-94
2022/06/05 07:27:05;;;;;;;2.30;2.10;;;22.60;55.30;;;;;;5053129;28;20168;-94
2022/06/05 07:29:49;;;;;;;2.33;2.13;;;22.60;55.30;;;;;;5048859;28;20212;-94
2022/06/05 07:32:15;;;;;;;2.27;2.07;;;22.60;55.20;;;;;;5054818;28;20195;-93
2022/06/05 07:34:42;;;;;;;2.57;2.37;;;22.70;55.20;;;;;;5055401;28;20180;-94
2022/06/05 07:37:17;;;;;;;2.50;2.30;;;22.70;55.20;;;;;;5056599;28;20160;-94
2022/06/05 07:39:43;;;;;;;2.40;2.20;;;22.70;55.10;;;;;;5053726;28;20229;-94
2022/06/05 07:42:11;;;;;;;3.13;2.30;;;22.70;55.10;;;;;;5055895;28;20237;-93
2022/06/05 07:44:37;;;;;;;3.00;2.20;;;22.70;55.20;;;;;;5057126;28;20581;-93
2022/06/05 07:47:23;;;;;;;3.13;2.17;;;22.70;55.20;;;;;;5055478;28;20191;-94
2022/06/05 07:55:55;;;;;;;2.47;2.20;;;22.70;55.30;;;;;;5053267;28;20180;-93
2022/06/05 07:58:21;;;;;;;2.70;2.50;;;22.70;55.30;;;;;;5032615;28;20180;-93
2022/06/05 08:00:47;;;;;;;2.60;2.40;;;22.80;55.30;;;;;;5033571;28;20348;-93
2022/06/05 08:03:25;;;;;;;2.67;2.40;;;22.80;55.30;;;;;;5147729;27;20583;-4
2022/06/05 08:05:50;;;;;;;2.43;2.23;;;22.80;55.20;;;;;;5150611;27;20227;-5
2022/06/05 08:08:16;;;;;;;2.30;2.20;;;22.90;55.10;;;;;;5150047;27;20430;-5
2022/06/05 08:10:42;;;;;;;2.67;2.30;;;23.00;55.40;;;;;;5131720;27;20372;-5
2022/06/05 08:13:08;;;;;;;2.57;2.37;;;23.10;54.80;;;;;;5132038;27;20572;-5
2022/06/05 08:15:34;;;;;;;2.50;2.30;;;23.10;54.50;;;;;;5130143;27;20207;-7
2022/06/05 08:17:59;;;;;;;2.80;2.17;;;23.20;54.30;;;;;;5130850;27;20172;-6
2022/06/05 08:20:25;;;;;;;2.87;2.40;;;23.40;54.10;;;;;;5149286;27;20165;-6
2022/06/05 08:22:52;;;;;;;2.73;2.20;;;23.50;53.80;;;;;;5149771;27;20204;-7
2022/06/05 08:25:19;;;;;;;2.50;2.30;;;23.60;53.60;;;;;;5131795;27;20176;-7
2022/06/05 08:27:46;;;;;;;2.53;2.10;;;23.70;53.40;;;;;;5149963;27;20317;-9
2022/06/05 08:30:12;;;;;;;2.23;2.03;;;23.80;53.20;;;;;;5131028;27;20573;-6
2022/06/05 08:32:38;;;;;;;2.33;2.13;;;24.00;53.00;;;;;;5149427;27;20469;-7
2022/06/05 08:35:04;;;;;;;2.40;2.30;;;24.10;52.90;;;;;;5149269;27;20178;-8
2022/06/05 08:43:33;;;;;;;2.43;2.23;;;24.50;53.00;;;;;;5136588;27;20420;-5
2022/06/05 08:46:02;;;;;;;2.67;2.10;;;24.60;53.30;;;;;;5126934;27;20247;-8
2022/06/05 08:48:34;;;;;;;2.70;2.50;;;24.50;53.80;;;;;;5122390;27;20161;-7
2022/06/05 08:51:18;;;;;;;2.47;2.20;;;24.50;53.90;;;;;;5139946;27;20157;-5
2022/06/05 08:53:58;;;;;;;2.40;2.23;;;24.50;53.70;;;;;;5136929;27;20305;-6
2022/06/05 08:56:43;;;;;;;2.40;2.20;;;24.40;54.10;;;;;;5114377;27;20517;-5
2022/06/05 08:59:26;;;;;;;2.60;2.40;;;24.40;54.40;;;;;;5144220;27;20161;-7
2022/06/05 09:02:15;;;;;;;2.60;2.40;;;24.40;54.70;;;;;;5137324;27;20201;-6
2022/06/05 09:04:47;;;;;;;2.83;2.63;;;24.40;54.80;;;;;;5130063;27;20172;-5
2022/06/05 09:07:22;;;;;;;2.77;2.57;;;24.40;55.00;;;;;;5138889;27;20637;-7
2022/06/05 09:09:58;;;;;;;2.83;2.60;;;24.40;55.40;;;;;;5145237;27;20165;-5
2022/06/05 09:12:54;;;;;;;2.70;2.50;;;24.30;55.20;;;;;;5142136;27;20256;-7
2022/06/05 09:15:32;;;;;;;2.90;2.70;;;24.40;55.30;;;;;;5133773;27;20161;-6
2022/06/05 09:18:00;;;;;;;2.70;2.50;;;24.30;55.40;;;;;;5128764;27;20176;-6
2022/06/05 09:20:49;;;;;;;2.60;2.40;;;24.40;55.50;;;;;;5131075;27;20162;-5
2022/06/05 09:23:25;;;;;;;2.77;2.57;;;24.40;55.50;;;;;;5122521;27;20265;-6
2022/06/05 09:26:02;;;;;;;2.63;2.43;;;24.30;55.50;;;;;;5121559;27;20199;-6
2022/06/05 09:29:00;;;;;;;2.70;2.50;;;24.30;55.60;;;;;;5118417;27;20169;-6
2022/06/05 09:31:41;;;;;;;2.70;2.50;;;24.30;55.60;;;;;;5110587;27;20625;-7
2022/06/05 09:34:24;;;;;;;2.70;2.50;;;24.30;55.90;;;;;;5126014;27;20201;-5
2022/06/05 09:37:23;;;;;;;3.07;2.87;;;24.20;56.00;;;;;;5116630;27;20424;-6
2022/06/05 09:40:13;;;;;;;2.70;2.50;;;24.20;55.90;;;;;;5098022;27;20181;-6
2022/06/05 09:42:59;;;;;;;2.67;2.47;;;24.20;56.20;;;;;;5133826;27;20201;-7
2022/06/05 09:46:02;;;;;;;3.10;2.53;;;24.20;56.30;;;;;;5090925;27;20181;-7
2022/06/05 09:48:42;;;;;;;3.63;2.60;;;24.20;56.50;;;;;;5110072;27;20172;-5
2022/06/05 09:51:10;;;;;;;3.00;2.80;;;24.20;56.40;;;;;;5132492;27;20431;-5
2022/06/05 09:53:45;;;;;;;2.67;2.47;;;24.20;56.40;;;;;;5133729;27;20338;-6
2022/06/05 09:56:26;;;;;;;2.60;2.40;;;24.20;56.40;;;;;;5109586;27;20244;-7
2022/06/05 09:58:51;;;;;;;2.70;2.50;;;24.10;56.50;;;;;;5121047;27;20444;-6
2022/06/05 10:01:50;;;;;;;2.70;2.50;;;24.10;56.40;;;;;;5109325;27;20192;-5
2022/06/05 10:04:16;;;;;;;2.60;2.40;;;24.10;56.60;;;;;;5105679;27;20174;-6
2022/06/05 10:06:48;;;;;;;2.60;2.40;;;24.10;56.60;;;;;;5124836;27;20403;-7
2022/06/05 10:09:24;;;;;;;2.97;2.77;;;24.10;56.60;;;;;;5127361;27;20197;-5
2022/06/05 10:12:03;;;;;;;2.47;2.27;;;24.10;56.60;;;;;;5127101;27;20168;-5
2022/06/05 10:14:43;;;;;;;2.90;2.70;;;24.10;56.70;;;;;;5127240;27;20570;-7
2022/06/05 10:17:31;;;;;;;2.60;2.40;;;24.10;56.90;;;;;;5104654;27;20177;-6
2022/06/05 10:20:05;;;;;;;2.87;2.40;;;24.10;56.60;;;;;;5128852;27;20173;-7
2022/06/05 10:22:41;;;;;;;2.50;2.30;;;24.10;56.40;;;;;;5120968;27;20572;-7
2022/06/05 10:25:34;;;;;;;2.70;2.50;;;24.10;56.40;;;;;;5117952;27;20160;-5
2022/06/05 10:28:12;;;;;;;2.70;2.50;;;24.10;56.40;;;;;;5133459;27;20196;-6
2022/06/05 10:30:56;;;;;;;2.60;2.40;;;24.00;56.40;;;;;;5132228;27;20593;-6
2022/06/05 10:33:32;;;;;;;2.60;2.40;;;24.00;56.30;;;;;;5132317;27;20177;-5
2022/06/05 10:36:10;;;;;;;2.87;2.67;;;24.10;56.30;;;;;;5114177;27;20183;-6
2022/06/05 10:39:00;;;;;;;2.70;2.50;;;24.00;56.30;;;;;;5114430;27;20573;-7
2022/06/05 10:41:45;;;;;;;2.40;2.30;;;24.10;56.50;;;;;;5131058;27;20227;-6
2022/06/05 10:44:47;;;;;;;2.57;2.37;;;24.00;56.50;;;;;;5131503;27;20164;-7
2022/06/05 10:47:29;;;;;;;2.80;2.60;;;24.00;56.40;;;;;;5132718;27;20471;-6
2022/06/05 10:50:21;;;;;;;2.40;2.20;;;24.00;56.50;;;;;;5113671;27;20265;-5
2022/06/05 10:53:04;;;;;;;2.67;2.47;;;24.00;56.70;;;;;;5132009;27;20266;-7
2022/06/05 10:55:53;;;;;;;2.47;2.27;;;24.00;56.70;;;;;;5113926;27;20176;-6
2022/06/05 10:58:41;;;;;;;2.47;2.27;;;24.00;56.70;;;;;;5131576;27;20180;-5
2022/06/05 11:01:32;;;;;;;2.87;2.57;;;23.90;56.80;;;;;;5132114;27;20169;-6
2022/06/05 11:04:04;;;;;;;2.23;2.10;;;23.90;56.90;;;;;;5131941;27;20169;-6
2022/06/05 11:06:52;;;;;;;2.20;2.10;;;23.90;56.90;;;;;;5112236;27;20446;-7
2022/06/05 11:09:39;;;;;;;2.10;2.00;;;23.90;56.80;;;;;;5130435;27;20239;-5
2022/06/05 11:15:28;;;;;;;2.50;2.30;;;23.80;56.70;;;;;;5132013;27;20176;-6
2022/06/05 11:18:10;;;;;;;2.50;2.30;;;23.80;56.70;;;;;;5132097;27;20166;-7
2022/06/05 11:20:42;;;;;;;2.70;2.50;;;23.80;56.70;;;;;;5132083;27;20171;-6
2022/06/05 11:23:13;;;;;;;2.10;1.90;;;23.80;56.70;;;;;;5132574;27;20774;-6
2022/06/05 11:25:59;;;;;;;2.50;2.30;;;23.80;56.60;;;;;;5114817;27;20168;-5
2022/06/05 11:29:01;;;;;;;2.50;2.30;;;23.80;56.60;;;;;;5122963;27;20449;-7
2022/06/05 11:31:46;;;;;;;2.80;2.60;;;23.80;56.60;;;;;;5125627;27;20164;-7
2022/06/05 11:34:56;;;;;;;2.30;2.20;;;23.80;56.50;;;;;;5128220;27;20469;-5
2022/06/05 11:37:45;;;;;;;2.23;2.13;;;23.80;56.50;;;;;;5083792;27;20200;-7
2022/06/05 11:40:49;;;;;;;2.30;2.20;;;23.80;56.50;;;;;;5126189;27;20241;-6
2022/06/05 11:43:24;;;;;;;2.20;2.10;;;23.80;56.50;;;;;;5096831;27;20731;-5
2022/06/05 11:46:08;;;;;;;2.60;2.40;;;23.80;56.70;;;;;;5128988;27;20172;-5
2022/06/05 11:48:44;;;;;;;2.60;2.40;;;23.80;56.70;;;;;;5125874;27;20647;-7
2022/06/05 11:51:55;;;;;;;2.60;2.40;;;23.80;56.80;;;;;;5120824;27;20252;-5
2022/06/05 11:54:43;;;;;;;2.60;2.40;;;23.80;56.80;;;;;;5043186;28;20188;-7
2022/06/05 12:00:53;;;;;;;2.43;2.23;;;23.80;57.40;;;;;;5045901;28;20201;-6
2022/06/05 12:13:50;;;;;;;2.37;2.27;;;23.90;57.80;;;;;;5130092;27;20179;-7
2022/06/05 12:23:31;;;;;;;2.53;2.33;;;23.90;57.90;;;;;;5126536;27;20215;-6
2022/06/05 12:26:36;;;;;;;2.50;2.30;;;24.00;58.10;;;;;;5104271;27;20334;-6
2022/06/05 12:29:19;;;;;;;2.90;2.70;;;24.00;58.80;;;;;;5115368;27;20243;-6
2022/06/05 12:31:56;;;;;;;2.60;2.40;;;24.00;58.90;;;;;;5126169;27;20177;-5
2022/06/05 12:34:38;;;;;;;2.80;2.60;;;24.00;58.90;;;;;;5122814;27;20211;-6
2022/06/05 12:37:25;;;;;;;3.10;2.60;;;24.00;59.10;;;;;;5126210;27;20581;-7
2022/06/05 12:39:54;;;;;;;2.67;2.47;;;24.10;59.10;;;;;;5125791;27;20176;-7
2022/06/05 12:45:45;;;;;;;2.83;2.63;;;24.10;59.60;;;;;;5109732;27;20779;-6
2022/06/05 12:48:20;;;;;;;2.80;2.60;;;24.10;59.70;;;;;;5123466;27;20179;-7
2022/06/05 12:51:01;;;;;;;2.70;2.50;;;24.10;59.60;;;;;;5124587;27;20240;-6
2022/06/05 12:56:55;;;;;;;2.70;2.50;;;24.10;59.80;;;;;;5131584;27;20195;-6
2022/06/05 12:59:30;;;;;;;2.70;2.50;;;24.20;60.00;;;;;;5112760;27;20430;-6
2022/06/05 13:02:01;;;;;;;2.60;2.40;;;24.10;60.00;;;;;;5125593;27;20389;-6
2022/06/05 13:04:44;;;;;;;2.70;2.50;;;24.20;60.10;;;;;;5134248;27;20264;-6
2022/06/05 13:07:20;;;;;;;2.60;2.40;;;24.20;60.40;;;;;;5134669;27;20532;-8
2022/06/05 13:09:51;;;;;;;2.90;2.70;;;24.20;60.20;;;;;;5116471;27;20283;-5
2022/06/05 13:12:33;;;;;;;2.90;2.70;;;24.30;61.00;;;;;;5134883;27;20794;-6
2022/06/05 13:15:19;;;;;;;2.90;2.70;;;24.20;61.20;;;;;;5134218;27;20523;-7
2022/06/05 13:18:01;;;;;;;2.83;2.63;;;24.30;62.50;;;;;;5135634;27;20237;-6
2022/06/05 13:20:32;;;;;;;2.93;2.73;;;24.30;62.90;;;;;;5133704;27;20586;-5
2022/06/05 13:23:22;;;;;;;2.97;2.77;;;24.30;62.60;;;;;;5116168;27;20315;-7
2022/06/05 13:26:01;;;;;;;2.90;2.70;;;24.40;64.80;;;;;;5135007;27;20475;-6
2022/06/05 13:28:33;;;;;;;3.13;2.93;;;24.40;64.50;;;;;;5134658;27;20453;-7
2022/06/05 13:41:17;;;;;;;3.17;2.97;;;24.40;65.70;;;;;;5130652;27;20354;-5
2022/06/05 13:43:56;;;;;;;3.13;2.90;;;24.50;65.50;;;;;;5103258;27;20181;-5
2022/06/05 13:46:42;;;;;;;3.00;2.80;;;24.50;66.00;;;;;;5110953;27;20288;-7
2022/06/05 13:49:32;;;;;;;3.47;3.17;;;24.50;65.80;;;;;;5125786;27;20177;-7
2022/06/05 13:52:03;;;;;;;3.40;3.10;;;24.50;66.30;;;;;;5115595;27;20548;-6
2022/06/05 13:54:34;;;;;;;3.17;2.90;;;24.50;66.30;;;;;;5133008;27;20173;-5
2022/06/05 13:57:25;;;;;;;3.17;2.87;;;24.50;66.90;;;;;;5117255;27;20232;-7
2022/06/05 13:59:57;;;;;;;3.00;2.80;;;24.50;67.30;;;;;;5110626;27;20172;-6
2022/06/05 14:09:48;;;;;;;3.23;2.93;;;24.50;67.00;;;;;;5128252;27;20233;-6
2022/06/05 14:12:43;;;;;;;3.17;2.97;;;24.50;67.30;;;;;;5074786;27;20173;-6
2022/06/05 14:15:29;;;;;;;3.07;2.87;;;24.50;67.20;;;;;;5128889;27;20183;-7
2022/06/05 14:17:57;;;;;;;3.20;2.90;;;24.50;67.90;;;;;;5128176;27;20450;-5
2022/06/05 14:20:27;;;;;;;3.10;2.90;;;24.50;67.50;;;;;;5133236;27;20172;-7
2022/06/05 14:22:56;;;;;;;3.40;3.10;;;24.50;67.40;;;;;;5132010;27;20211;-6
2022/06/05 14:25:35;;;;;;;3.20;3.00;;;24.40;67.10;;;;;;5112812;27;20229;-6
2022/06/05 14:28:05;;;;;;;3.30;3.10;;;24.50;67.40;;;;;;5133263;27;20165;-7
2022/06/05 14:30:33;;;;;;;3.30;3.10;;;24.40;67.20;;;;;;5133887;27;20168;-6
2022/06/05 14:33:01;;;;;;;3.20;3.00;;;24.40;67.20;;;;;;5129118;27;20249;-7
2022/06/05 14:35:35;;;;;;;3.20;3.00;;;24.40;67.60;;;;;;5131757;27;20263;-7
2022/06/05 14:38:22;;;;;;;3.10;2.90;;;24.40;67.50;;;;;;5131521;27;20329;-7
2022/06/05 14:40:58;;;;;;;3.23;3.00;;;24.40;67.70;;;;;;5115240;27;20184;-5
2022/06/05 14:44:01;;;;;;;3.40;3.10;;;24.40;67.50;;;;;;5133034;27;20620;-5
2022/06/05 14:46:40;;;;;;;3.50;3.20;;;24.40;67.40;;;;;;5115190;27;20174;-6
2022/06/05 14:49:18;;;;;;;3.20;3.00;;;24.40;67.30;;;;;;5133607;27;20169;-7
2022/06/05 14:52:11;;;;;;;2.97;2.77;;;24.40;67.40;;;;;;5132852;27;20157;-6
2022/06/05 14:58:14;;;;;;;3.20;3.00;;;24.40;68.10;;;;;;5132604;27;20204;-5
2022/06/05 15:00:55;;;;;;;3.43;3.00;;;24.40;68.10;;;;;;5069679;27;20607;-7
2022/06/05 15:03:35;;;;;;;6.07;3.10;;;24.50;68.70;;;;;;5131740;27;20205;-6
2022/06/05 15:06:02;;;;;;;3.70;3.47;;;24.50;68.90;;;;;;5132321;27;20487;-7
2022/06/05 15:08:37;;;;;;;3.77;3.47;;;24.50;69.70;;;;;;5132227;27;20302;-6
2022/06/05 15:11:05;;;;;;;3.63;3.33;;;24.50;70.20;;;;;;5115524;28;20201;-6
2022/06/05 15:13:50;;;;;;;3.67;3.37;;;24.50;70.40;;;;;;5132522;27;20170;-5
2022/06/05 15:16:24;;;;;;;3.30;3.10;;;24.50;70.20;;;;;;5130218;27;20240;-6
2022/06/05 15:18:51;;;;;;;3.10;2.90;;;24.50;69.90;;;;;;5132615;27;20184;-6
2022/06/05 15:21:35;;;;;;;3.63;3.33;;;24.50;70.30;;;;;;5114768;27;20482;-6